Nordic Philip — 5BZH2 — position and weather

sailwx.info

Track history (hours):
 
Tides and Currents Weather Stations Pressure Air Temp Water Temp Dewpoint Dewpoint Depression Visibility Wind Speed Wind Dir Waves Ship Positions

Nordic Philip

Last reported at 2014-Oct-29 09:16 UTC. Time now 2014-Oct-31 19:28 UTC.
Position N 57°15' E 020°24'.

Length 151 m; draft 8.5 m.

Type: Ship (hazmat cat A). MMSI: 212018000.

Date/timePositionNaut miles runAvg speedWind from/ knotsBaromVisibWave heightAir tempDewpointWater temp
2014-Oct-29 09:16N 57°15' E 020°24'8316.2
2014-Oct-29 04:08N 56°15' E 018°39'1716.5
2014-Oct-29 03:05N 56°06' E 018°12'1616.4
2014-Oct-29 02:06N 55°57' E 017°48'916.1
2014-Oct-29 01:33N 55°54' E 017°33'3316.3
2014-Oct-28 23:32N 55°46' E 016°36'3316.3
2014-Oct-28 21:31N 55°38' E 015°39'1616.4
2014-Oct-28 20:33N 55°33' E 015°13'1616.1
2014-Oct-28 19:33N 55°26' E 014°47'1615.7
2014-Oct-28 18:33N 55°15' E 014°28'1615.8
2014-Oct-28 17:33N 55°04' E 014°09'1716.5
2014-Oct-28 16:33N 54°57' E 013°43'1616.4
2014-Oct-28 15:33N 54°51' E 013°16'1616.2
2014-Oct-28 14:33N 54°47' E 012°49'1615.9
2014-Oct-28 13:31N 54°39' E 012°24'1515.3
2014-Oct-28 12:33N 54°26' E 012°11'1615.6
2014-Oct-28 11:33N 54°25' E 011°44'1615.9
2014-Oct-28 10:32N 54°32' E 011°20'1616.0
2014-Oct-28 09:33N 54°35' E 010°53'1716.2
2014-Oct-28 08:32N 54°31' E 010°25'1211.7
2014-Oct-28 07:33N 54°23' E 010°11'2 1.9
2014-Oct-28 06:28N 54°22' E 010°08'0 0.5
2014-Oct-28 05:28N 54°22' E 010°07'0 0.2
2014-Oct-28 04:28N 54°22' E 010°07'2 2.7
2014-Oct-28 03:34N 54°22' E 010°03'5 5.2
2014-Oct-28 02:33N 54°21' E 009°54'5 4.5
2014-Oct-28 01:33N 54°21' E 009°46'7 6.6
2014-Oct-28 00:32N 54°16' E 009°38'6 6.0
2014-Oct-27 23:33N 54°12' E 009°32'6 6.3
2014-Oct-27 22:32N 54°09' E 009°22'0 0.5
2014-Oct-27 21:31N 54°09' E 009°21'5 5.7
2014-Oct-27 20:33N 54°03' E 009°19'1 1.3
2014-Oct-27 19:33N 54°02' E 009°18'4 4.3
2014-Oct-27 18:33N 53°58' E 009°16'5 4.6
2014-Oct-27 17:33N 53°55' E 009°11'3 2.9
2014-Oct-27 16:34N 53°53' E 009°07'3 3.2
2014-Oct-27 15:33N 53°53' E 009°12'0 0.0
2014-Oct-27 14:33N 53°53' E 009°12'7 7.4
2014-Oct-27 13:34N 53°49' E 009°22'1111.4
2014-Oct-27 12:34N 53°39' E 009°31'1211.5
2014-Oct-27 11:33N 53°33' E 009°49'5 5.0
2014-Oct-27 10:32N 53°32' E 009°57'0 0.0
2014-Oct-27 09:29N 53°32' E 009°57'0 0.0
2014-Oct-27 08:32N 53°32' E 009°57'0 0.0
2014-Oct-27 07:32N 53°32' E 009°57'0 0.0
2014-Oct-27 06:32N 53°32' E 009°57'0 0.0
2014-Oct-27 05:32N 53°32' E 009°57'0 0.1
2014-Oct-27 04:29N 53°32' E 009°57'1 1.6
2014-Oct-27 03:33N 53°32' E 009°55'0 0.0
2014-Oct-27 02:33N 53°32' E 009°55'0 0.0
2014-Oct-27 01:33N 53°32' E 009°55'0 0.0
2014-Oct-27 00:33N 53°32' E 009°55'0 0.0
2014-Oct-26 23:33N 53°32' E 009°55'0 0.0
2014-Oct-26 22:33N 53°32' E 009°55'0 0.0
2014-Oct-26 21:33N 53°32' E 009°55'0 0.0
2014-Oct-26 20:33N 53°32' E 009°55'0 0.0
2014-Oct-26 19:33N 53°32' E 009°55'1 0.6
2014-Oct-26 18:33N 53°32' E 009°56'0 0.0
2014-Oct-26 17:33N 53°32' E 009°56'0 0.2
2014-Oct-26 16:33N 53°32' E 009°55'0 0.0
2014-Oct-26 15:33N 53°32' E 009°55'0 0.0
2014-Oct-26 13:33N 53°32' E 009°55'0 0.0
2014-Oct-26 12:33N 53°32' E 009°55'0 0.0
2014-Oct-26 11:30N 53°32' E 009°55'0 0.0
2014-Oct-26 10:33N 53°32' E 009°55'0 0.0
2014-Oct-26 09:33N 53°32' E 009°55'0 0.0
2014-Oct-26 08:33N 53°32' E 009°55'0 0.0
2014-Oct-26 07:30N 53°32' E 009°55'0 0.0
2014-Oct-26 06:33N 53°32' E 009°55'0 0.0
2014-Oct-26 05:30N 53°32' E 009°55'0 0.0
2014-Oct-26 04:33N 53°32' E 009°55'0 0.0
2014-Oct-26 03:33N 53°32' E 009°55'0 0.0
2014-Oct-26 02:33N 53°32' E 009°55'0 0.0
2014-Oct-26 01:33N 53°32' E 009°55'0 0.0
2014-Oct-26 00:33N 53°32' E 009°55'0 0.0
2014-Oct-25 23:33N 53°32' E 009°55'1 0.7
2014-Oct-25 22:33N 53°32' E 009°55'3 2.1
2014-Oct-25 21:22N 53°30' E 009°56'0 0.0
2014-Oct-25 20:28N 53°30' E 009°56'0 0.0
2014-Oct-25 19:31N 53°30' E 009°56'0 0.0
2014-Oct-25 18:32N 53°30' E 009°56'0 0.0
2014-Oct-25 17:28N 53°30' E 009°56'0 0.0
2014-Oct-25 16:28N 53°30' E 009°56'0 0.0
2014-Oct-25 15:28N 53°30' E 009°56'0 0.0
2014-Oct-25 14:32N 53°30' E 009°56'0 0.0
2014-Oct-25 13:28N 53°30' E 009°56'0 0.0
2014-Oct-25 12:28N 53°30' E 009°56'0 0.0
2014-Oct-25 11:32N 53°30' E 009°56'1 1.4
2014-Oct-25 10:34N 53°31' E 009°56'7 6.6
2014-Oct-25 09:34N 53°34' E 009°46'1211.9
2014-Oct-25 08:33N 53°41' E 009°30'1313.1
2014-Oct-25 07:33N 53°52' E 009°17'1110.9
2014-Oct-25 06:33N 53°51' E 008°59'1010.3
2014-Oct-25 05:33N 53°53' E 008°42'1111.4
2014-Oct-25 04:33N 53°59' E 008°25'1313.1
2014-Oct-25 03:33N 53°58' E 008°03'8 7.5
2014-Oct-25 02:33N 53°51' E 008°03'1717.5
2014-Oct-25 01:33N 53°39' E 008°25'5 5.2
2014-Oct-25 00:33N 53°35' E 008°32'0 0.0
2014-Oct-24 23:33N 53°35' E 008°32'0 0.0
2014-Oct-24 22:33N 53°35' E 008°32'0 0.0
2014-Oct-24 21:33N 53°35' E 008°32'0 0.0
2014-Oct-24 20:33N 53°35' E 008°32'0 0.0
2014-Oct-24 19:33N 53°35' E 008°32'0 0.0
2014-Oct-24 18:33N 53°35' E 008°32'0 0.2
2014-Oct-24 17:30N 53°35' E 008°31'0 0.0
2014-Oct-24 16:30N 53°35' E 008°31'0 0.0
2014-Oct-24 15:33N 53°35' E 008°31'0 0.0
2014-Oct-24 14:33N 53°35' E 008°31'0 0.0
2014-Oct-24 13:33N 53°35' E 008°31'0 0.0
2014-Oct-24 12:33N 53°35' E 008°31'4 4.4
2014-Oct-24 11:34N 53°38' E 008°26'1615.9
2014-Oct-24 10:33N 53°49' E 008°06'11 5.3
2014-Oct-24 08:33N 53°60' E 008°04'1312.9
2014-Oct-24 07:33N 53°59' E 008°26'1514.6
2014-Oct-24 06:33N 53°51' E 008°46'1413.6
2014-Oct-24 05:33N 53°54' E 009°09'1 0.5
2014-Oct-24 04:33N 53°54' E 009°09'19 6.0
2014-Oct-24 01:23N 54°10' E 009°26'4 4.7
2014-Oct-24 00:26N 54°12' E 009°33'4 4.7
2014-Oct-23 23:29N 54°16' E 009°37'5 5.2
2014-Oct-23 22:33N 54°19' E 009°43'4 4.3
2014-Oct-23 21:33N 54°22' E 009°49'5 5.3
2014-Oct-23 20:33N 54°21' E 009°58'4 4.2
2014-Oct-23 19:33N 54°22' E 010°05'2 2.3
2014-Oct-23 18:33N 54°22' E 010°09'2 2.4
2014-Oct-23 17:33N 54°23' E 010°12'10 9.8
2014-Oct-23 16:33N 54°31' E 010°22'1715.1
2014-Oct-23 15:25N 54°35' E 010°51'1815.0
2014-Oct-23 14:15N 54°33' E 011°21'1216.6
2014-Oct-23 13:33N 54°28' E 011°39'1515.5
2014-Oct-23 12:33N 54°26' E 012°06'5714.0
2014-Oct-23 08:27N 54°46' E 013°39'1516.1
2014-Oct-23 07:33N 54°41' E 014°03'1615.6
2014-Oct-23 06:30N 54°39' E 014°31'1516.0
2014-Oct-23 05:33N 54°43' E 014°56'1615.7
2014-Oct-23 04:33N 54°49' E 015°22'  
2014-Oct-20 22:05N 55°21' E 018°27'1317.0
2014-Oct-20 21:20N 55°18' E 018°06'11617.0
2014-Oct-20 14:31N 54°37' E 014°57'4411.2
2014-Oct-20 10:34N 54°00' E 014°16'8 8.4
2014-Oct-20 09:33N 53°52' E 014°17'9 8.8
2014-Oct-20 08:33N 53°45' E 014°25'1110.6
2014-Oct-20 07:34N 53°36' E 014°35'8 8.3
2014-Oct-20 06:34N 53°28' E 014°36'2 0.1
2014-Oct-19 17:09N 53°26' E 014°35'0 0.0
2014-Oct-19 16:06N 53°26' E 014°35'0 0.0
2014-Oct-19 15:30N 53°26' E 014°35'0 0.0
2014-Oct-19 14:30N 53°26' E 014°35'0 0.0
2014-Oct-19 13:30N 53°26' E 014°35'0 0.0
2014-Oct-19 12:30N 53°26' E 014°35'0 0.0
2014-Oct-19 11:30N 53°26' E 014°35'0 0.0
2014-Oct-19 10:33N 53°26' E 014°35'0 0.0
2014-Oct-19 09:33N 53°26' E 014°35'  
Track history (hours):
 
Tides and Currents Weather Stations Pressure Air Temp Water Temp Dewpoint Dewpoint Depression Visibility Wind Speed Wind Dir Waves Ship Positions

Nordic Philip

Last reported at 2014-Oct-29 09:16 UTC. Time now 2014-Oct-31 19:28 UTC.
Position N 57°15' E 020°24'.

Length 151 m; draft 8.5 m.

Type: Ship (hazmat cat A). MMSI: 212018000.

Date/timePositionNaut miles runAvg speedWind from/ knotsBaromVisibWave heightAir tempDewpointWater temp
2014-Oct-29 09:16N 57°15' E 020°24'8316.2
2014-Oct-29 04:08N 56°15' E 018°39'1716.5
2014-Oct-29 03:05N 56°06' E 018°12'1616.4
2014-Oct-29 02:06N 55°57' E 017°48'916.1
2014-Oct-29 01:33N 55°54' E 017°33'3316.3
2014-Oct-28 23:32N 55°46' E 016°36'3316.3
2014-Oct-28 21:31N 55°38' E 015°39'1616.4
2014-Oct-28 20:33N 55°33' E 015°13'1616.1
2014-Oct-28 19:33N 55°26' E 014°47'1615.7
2014-Oct-28 18:33N 55°15' E 014°28'1615.8
2014-Oct-28 17:33N 55°04' E 014°09'1716.5
2014-Oct-28 16:33N 54°57' E 013°43'1616.4
2014-Oct-28 15:33N 54°51' E 013°16'1616.2
2014-Oct-28 14:33N 54°47' E 012°49'1615.9
2014-Oct-28 13:31N 54°39' E 012°24'1515.3
2014-Oct-28 12:33N 54°26' E 012°11'1615.6
2014-Oct-28 11:33N 54°25' E 011°44'1615.9
2014-Oct-28 10:32N 54°32' E 011°20'1616.0
2014-Oct-28 09:33N 54°35' E 010°53'1716.2
2014-Oct-28 08:32N 54°31' E 010°25'1211.7
2014-Oct-28 07:33N 54°23' E 010°11'2 1.9
2014-Oct-28 06:28N 54°22' E 010°08'0 0.5
2014-Oct-28 05:28N 54°22' E 010°07'0 0.2
2014-Oct-28 04:28N 54°22' E 010°07'2 2.7
2014-Oct-28 03:34N 54°22' E 010°03'5 5.2
2014-Oct-28 02:33N 54°21' E 009°54'5 4.5
2014-Oct-28 01:33N 54°21' E 009°46'7 6.6
2014-Oct-28 00:32N 54°16' E 009°38'6 6.0
2014-Oct-27 23:33N 54°12' E 009°32'6 6.3
2014-Oct-27 22:32N 54°09' E 009°22'0 0.5
2014-Oct-27 21:31N 54°09' E 009°21'5 5.7
2014-Oct-27 20:33N 54°03' E 009°19'1 1.3
2014-Oct-27 19:33N 54°02' E 009°18'4 4.3
2014-Oct-27 18:33N 53°58' E 009°16'5 4.6
2014-Oct-27 17:33N 53°55' E 009°11'3 2.9
2014-Oct-27 16:34N 53°53' E 009°07'3 3.2
2014-Oct-27 15:33N 53°53' E 009°12'0 0.0
2014-Oct-27 14:33N 53°53' E 009°12'7 7.4
2014-Oct-27 13:34N 53°49' E 009°22'1111.4
2014-Oct-27 12:34N 53°39' E 009°31'1211.5
2014-Oct-27 11:33N 53°33' E 009°49'5 5.0
2014-Oct-27 10:32N 53°32' E 009°57'0 0.0
2014-Oct-27 09:29N 53°32' E 009°57'0 0.0
2014-Oct-27 08:32N 53°32' E 009°57'0 0.0
2014-Oct-27 07:32N 53°32' E 009°57'0 0.0
2014-Oct-27 06:32N 53°32' E 009°57'0 0.0
2014-Oct-27 05:32N 53°32' E 009°57'0 0.1
2014-Oct-27 04:29N 53°32' E 009°57'1 1.6
2014-Oct-27 03:33N 53°32' E 009°55'0 0.0
2014-Oct-27 02:33N 53°32' E 009°55'0 0.0
2014-Oct-27 01:33N 53°32' E 009°55'0 0.0
2014-Oct-27 00:33N 53°32' E 009°55'0 0.0
2014-Oct-26 23:33N 53°32' E 009°55'0 0.0
2014-Oct-26 22:33N 53°32' E 009°55'0 0.0
2014-Oct-26 21:33N 53°32' E 009°55'0 0.0
2014-Oct-26 20:33N 53°32' E 009°55'0 0.0
2014-Oct-26 19:33N 53°32' E 009°55'1 0.6
2014-Oct-26 18:33N 53°32' E 009°56'0 0.0
2014-Oct-26 17:33N 53°32' E 009°56'0 0.2
2014-Oct-26 16:33N 53°32' E 009°55'0 0.0
2014-Oct-26 15:33N 53°32' E 009°55'0 0.0
2014-Oct-26 13:33N 53°32' E 009°55'0 0.0
2014-Oct-26 12:33N 53°32' E 009°55'0 0.0
2014-Oct-26 11:30N 53°32' E 009°55'0 0.0
2014-Oct-26 10:33N 53°32' E 009°55'0 0.0
2014-Oct-26 09:33N 53°32' E 009°55'0 0.0
2014-Oct-26 08:33N 53°32' E 009°55'0 0.0
2014-Oct-26 07:30N 53°32' E 009°55'0 0.0
2014-Oct-26 06:33N 53°32' E 009°55'0 0.0
2014-Oct-26 05:30N 53°32' E 009°55'0 0.0
2014-Oct-26 04:33N 53°32' E 009°55'0 0.0
2014-Oct-26 03:33N 53°32' E 009°55'0 0.0
2014-Oct-26 02:33N 53°32' E 009°55'0 0.0
2014-Oct-26 01:33N 53°32' E 009°55'0 0.0
2014-Oct-26 00:33N 53°32' E 009°55'0 0.0
2014-Oct-25 23:33N 53°32' E 009°55'1 0.7
2014-Oct-25 22:33N 53°32' E 009°55'3 2.1
2014-Oct-25 21:22N 53°30' E 009°56'0 0.0
2014-Oct-25 20:28N 53°30' E 009°56'0 0.0
2014-Oct-25 19:31N 53°30' E 009°56'0 0.0
2014-Oct-25 18:32N 53°30' E 009°56'0 0.0
2014-Oct-25 17:28N 53°30' E 009°56'0 0.0
2014-Oct-25 16:28N 53°30' E 009°56'0 0.0
2014-Oct-25 15:28N 53°30' E 009°56'0 0.0
2014-Oct-25 14:32N 53°30' E 009°56'0 0.0
2014-Oct-25 13:28N 53°30' E 009°56'0 0.0
2014-Oct-25 12:28N 53°30' E 009°56'0 0.0
2014-Oct-25 11:32N 53°30' E 009°56'1 1.4
2014-Oct-25 10:34N 53°31' E 009°56'7 6.6
2014-Oct-25 09:34N 53°34' E 009°46'1211.9
2014-Oct-25 08:33N 53°41' E 009°30'1313.1
2014-Oct-25 07:33N 53°52' E 009°17'1110.9
2014-Oct-25 06:33N 53°51' E 008°59'1010.3
2014-Oct-25 05:33N 53°53' E 008°42'1111.4
2014-Oct-25 04:33N 53°59' E 008°25'1313.1
2014-Oct-25 03:33N 53°58' E 008°03'8 7.5
2014-Oct-25 02:33N 53°51' E 008°03'1717.5
2014-Oct-25 01:33N 53°39' E 008°25'5 5.2
2014-Oct-25 00:33N 53°35' E 008°32'0 0.0
2014-Oct-24 23:33N 53°35' E 008°32'0 0.0
2014-Oct-24 22:33N 53°35' E 008°32'0 0.0
2014-Oct-24 21:33N 53°35' E 008°32'0 0.0
2014-Oct-24 20:33N 53°35' E 008°32'0 0.0
2014-Oct-24 19:33N 53°35' E 008°32'0 0.0
2014-Oct-24 18:33N 53°35' E 008°32'0 0.2
2014-Oct-24 17:30N 53°35' E 008°31'0 0.0
2014-Oct-24 16:30N 53°35' E 008°31'0 0.0
2014-Oct-24 15:33N 53°35' E 008°31'0 0.0
2014-Oct-24 14:33N 53°35' E 008°31'0 0.0
2014-Oct-24 13:33N 53°35' E 008°31'0 0.0
2014-Oct-24 12:33N 53°35' E 008°31'4 4.4
2014-Oct-24 11:34N 53°38' E 008°26'1615.9
2014-Oct-24 10:33N 53°49' E 008°06'11 5.3
2014-Oct-24 08:33N 53°60' E 008°04'1312.9
2014-Oct-24 07:33N 53°59' E 008°26'1514.6
2014-Oct-24 06:33N 53°51' E 008°46'1413.6
2014-Oct-24 05:33N 53°54' E 009°09'1 0.5
2014-Oct-24 04:33N 53°54' E 009°09'19 6.0
2014-Oct-24 01:23N 54°10' E 009°26'4 4.7
2014-Oct-24 00:26N 54°12' E 009°33'4 4.7
2014-Oct-23 23:29N 54°16' E 009°37'5 5.2
2014-Oct-23 22:33N 54°19' E 009°43'4 4.3
2014-Oct-23 21:33N 54°22' E 009°49'5 5.3
2014-Oct-23 20:33N 54°21' E 009°58'4 4.2
2014-Oct-23 19:33N 54°22' E 010°05'2 2.3
2014-Oct-23 18:33N 54°22' E 010°09'2 2.4
2014-Oct-23 17:33N 54°23' E 010°12'10 9.8
2014-Oct-23 16:33N 54°31' E 010°22'1715.1
2014-Oct-23 15:25N 54°35' E 010°51'1815.0
2014-Oct-23 14:15N 54°33' E 011°21'1216.6
2014-Oct-23 13:33N 54°28' E 011°39'1515.5
2014-Oct-23 12:33N 54°26' E 012°06'5714.0
2014-Oct-23 08:27N 54°46' E 013°39'1516.1
2014-Oct-23 07:33N 54°41' E 014°03'1615.6
2014-Oct-23 06:30N 54°39' E 014°31'1516.0
2014-Oct-23 05:33N 54°43' E 014°56'1615.7
2014-Oct-23 04:33N 54°49' E 015°22'  
2014-Oct-20 22:05N 55°21' E 018°27'1317.0
2014-Oct-20 21:20N 55°18' E 018°06'11617.0
2014-Oct-20 14:31N 54°37' E 014°57'4411.2
2014-Oct-20 10:34N 54°00' E 014°16'8 8.4
2014-Oct-20 09:33N 53°52' E 014°17'9 8.8
2014-Oct-20 08:33N 53°45' E 014°25'1110.6
2014-Oct-20 07:34N 53°36' E 014°35'8 8.3
2014-Oct-20 06:34N 53°28' E 014°36'2 0.1
2014-Oct-19 17:09N 53°26' E 014°35'0 0.0
2014-Oct-19 16:06N 53°26' E 014°35'0 0.0
2014-Oct-19 15:30N 53°26' E 014°35'0 0.0
2014-Oct-19 14:30N 53°26' E 014°35'0 0.0
2014-Oct-19 13:30N 53°26' E 014°35'0 0.0
2014-Oct-19 12:30N 53°26' E 014°35'0 0.0
2014-Oct-19 11:30N 53°26' E 014°35'0 0.0
2014-Oct-19 10:33N 53°26' E 014°35'0 0.0
2014-Oct-19 09:33N 53°26' E 014°35'  

Dump ship's entire track history